createdAt,value
2023-01-23T00:01:38.632Z,12.40
2023-01-23T00:04:06.581Z,12.53
2023-01-23T00:06:35.382Z,12.80
2023-01-23T00:09:03.048Z,12.67
2023-01-23T00:11:32.083Z,11.47
2023-01-23T00:14:01.167Z,12.00
2023-01-23T00:16:32.539Z,13.30
2023-01-23T00:19:01.798Z,11.83
2023-01-23T00:21:30.722Z,12.17
2023-01-23T00:24:01.425Z,12.23
2023-01-23T00:26:33.165Z,10.93
2023-01-23T00:29:01.130Z,11.50
2023-01-23T00:31:31.606Z,11.47
2023-01-23T00:34:03.513Z,11.10
2023-01-23T00:36:33.148Z,11.20
2023-01-23T00:39:01.619Z,11.93
2023-01-23T00:41:30.104Z,9.57
2023-01-23T00:43:58.116Z,11.57
2023-01-23T00:46:26.277Z,9.60
2023-01-23T00:48:54.923Z,11.00
2023-01-23T00:51:24.374Z,10.47
2023-01-23T00:53:53.383Z,10.70
2023-01-23T00:56:21.436Z,10.70
2023-01-23T00:58:49.087Z,10.50
2023-01-23T01:01:18.524Z,10.93
2023-01-23T01:03:47.184Z,11.07
2023-01-23T01:06:16.230Z,9.07
2023-01-23T01:08:45.292Z,9.63
2023-01-23T01:11:14.306Z,10.50
2023-01-23T01:13:42.238Z,10.03
2023-01-23T01:16:11.522Z,9.80
2023-01-23T01:18:39.549Z,9.57
2023-01-23T01:21:09.259Z,10.70
2023-01-23T01:23:37.383Z,10.40
2023-01-23T01:26:07.247Z,9.40
2023-01-23T01:28:36.427Z,10.50
2023-01-23T01:31:07.921Z,8.97
2023-01-23T01:33:36.752Z,9.87
2023-01-23T01:36:04.903Z,9.87
2023-01-23T01:38:32.942Z,10.27
2023-01-23T01:41:00.539Z,10.93
2023-01-23T01:43:30.197Z,10.83
2023-01-23T01:46:21.669Z,12.40
2023-01-23T01:48:57.042Z,10.60
2023-01-23T01:51:28.911Z,9.70
2023-01-23T01:54:05.391Z,10.90
2023-01-23T01:56:38.651Z,11.77
2023-01-23T01:59:09.324Z,9.30
2023-01-23T02:01:38.946Z,9.87
2023-01-23T02:04:08.743Z,10.50
2023-01-23T02:06:36.706Z,9.20
2023-01-23T02:09:09.857Z,9.60
2023-01-23T02:11:38.079Z,10.40
2023-01-23T02:14:07.920Z,9.77
2023-01-23T02:16:41.060Z,9.80
2023-01-23T02:19:17.277Z,9.37
2023-01-23T02:21:49.468Z,10.67
2023-01-23T02:24:23.520Z,10.57
2023-01-23T02:26:54.234Z,10.27
2023-01-23T02:29:22.065Z,10.37
2023-01-23T02:31:56.485Z,12.27
2023-01-23T02:34:26.402Z,10.27
2023-01-23T02:37:01.889Z,10.40
2023-01-23T02:39:30.675Z,10.40
2023-01-23T02:42:01.892Z,11.33
2023-01-23T02:44:53.760Z,10.63
2023-01-23T02:47:23.403Z,9.00
2023-01-23T02:49:50.973Z,10.73
2023-01-23T02:52:19.650Z,10.37
2023-01-23T02:54:48.085Z,10.33
2023-01-23T02:57:17.896Z,10.90
2023-01-23T03:00:03.513Z,11.23
2023-01-23T03:02:34.143Z,10.70
2023-01-23T03:05:02.251Z,10.63
2023-01-23T03:07:30.377Z,10.93
2023-01-23T03:09:58.126Z,10.37
2023-01-23T03:12:28.532Z,10.93
2023-01-23T03:14:56.721Z,10.77
2023-01-23T03:17:25.114Z,9.70
2023-01-23T03:19:53.778Z,11.00
2023-01-23T03:22:22.427Z,9.97
2023-01-23T03:24:50.119Z,10.50
2023-01-23T03:27:17.818Z,9.87
2023-01-23T03:30:10.483Z,10.10
2023-01-23T03:32:38.588Z,9.97
2023-01-23T03:35:10.481Z,9.90
2023-01-23T03:37:38.201Z,10.73
2023-01-23T03:40:30.498Z,10.70
2023-01-23T03:42:58.232Z,10.17
2023-01-23T03:45:31.277Z,10.40
2023-01-23T03:47:59.356Z,9.63
2023-01-23T03:50:27.273Z,9.87
2023-01-23T03:52:55.272Z,10.87
2023-01-23T03:55:23.026Z,9.70
2023-01-23T03:57:51.887Z,9.30
2023-01-23T04:00:25.985Z,9.80
2023-01-23T04:03:01.975Z,10.00
2023-01-23T04:05:30.107Z,10.77
2023-01-23T04:07:58.511Z,9.00
2023-01-23T04:10:27.088Z,9.07
2023-01-23T04:12:58.910Z,9.80
2023-01-23T04:15:27.722Z,8.70
2023-01-23T04:17:58.364Z,8.63
2023-01-23T04:20:28.333Z,9.13
2023-01-23T04:22:58.523Z,10.50
2023-01-23T04:25:29.650Z,9.93
2023-01-23T04:27:57.396Z,9.90
2023-01-23T04:30:26.331Z,9.37
2023-01-23T04:32:54.343Z,9.80
2023-01-23T04:35:24.403Z,10.87
2023-01-23T04:37:54.469Z,9.63
2023-01-23T04:40:22.803Z,10.03
2023-01-23T04:42:57.567Z,9.40
2023-01-23T04:45:53.675Z,9.57
2023-01-23T04:48:41.680Z,10.10
2023-01-23T04:51:10.534Z,10.00
2023-01-23T04:53:40.151Z,10.37
2023-01-23T04:56:09.183Z,9.40
2023-01-23T04:58:37.535Z,9.17
2023-01-23T05:01:08.127Z,9.23
2023-01-23T05:03:38.553Z,9.77
2023-01-23T05:06:07.299Z,9.43
2023-01-23T05:08:36.096Z,8.80
2023-01-23T05:11:16.014Z,9.20
2023-01-23T05:13:45.199Z,10.30
2023-01-23T05:16:14.634Z,9.73
2023-01-23T05:19:09.202Z,9.37
2023-01-23T05:21:38.151Z,10.83
2023-01-23T05:24:07.956Z,9.30
2023-01-23T05:26:37.587Z,10.83
2023-01-23T05:29:06.035Z,10.00
2023-01-23T05:31:37.153Z,8.50
2023-01-23T05:34:41.376Z,9.13
2023-01-23T05:37:26.095Z,9.60
2023-01-23T05:39:58.283Z,9.87
2023-01-23T05:42:32.941Z,10.03
2023-01-23T05:45:10.718Z,10.20
2023-01-23T05:47:42.358Z,9.43
2023-01-23T05:50:17.188Z,9.40
2023-01-23T05:52:45.811Z,9.73
2023-01-23T05:55:15.025Z,9.00
2023-01-23T05:57:47.576Z,9.00
2023-01-23T06:00:35.995Z,9.63
2023-01-23T06:03:22.323Z,9.10
2023-01-23T06:06:09.105Z,9.50
2023-01-23T06:08:36.904Z,8.20
2023-01-23T06:11:05.264Z,9.10
2023-01-23T06:13:34.784Z,10.30
2023-01-23T06:16:03.634Z,10.00
2023-01-23T06:18:32.229Z,9.23
2023-01-23T06:21:01.805Z,9.80
2023-01-23T06:23:30.111Z,9.70
2023-01-23T06:26:02.258Z,9.77
2023-01-23T06:28:30.740Z,8.73
2023-01-23T06:31:06.678Z,10.50
2023-01-23T06:33:52.635Z,9.57
2023-01-23T06:36:23.845Z,11.90
2023-01-23T06:38:51.938Z,10.00
2023-01-23T06:41:25.206Z,10.47
2023-01-23T06:43:55.151Z,10.27
2023-01-23T06:46:28.402Z,10.77
2023-01-23T06:48:56.838Z,10.47
2023-01-23T06:51:24.932Z,11.50
2023-01-23T06:53:53.029Z,11.50
2023-01-23T06:56:22.972Z,10.70
2023-01-23T06:58:50.667Z,10.57
2023-01-23T07:01:24.563Z,10.27
2023-01-23T07:04:12.606Z,9.33
2023-01-23T07:06:42.352Z,9.70
2023-01-23T07:09:11.521Z,10.40
2023-01-23T07:11:40.456Z,10.57
2023-01-23T07:14:08.508Z,8.80
2023-01-23T07:16:38.460Z,10.30
2023-01-23T07:19:06.459Z,10.20
2023-01-23T07:21:38.143Z,10.43
2023-01-23T07:24:06.408Z,9.07
2023-01-23T07:26:34.243Z,9.40
2023-01-23T07:29:01.960Z,9.03
2023-01-23T07:31:29.661Z,8.20
2023-01-23T07:33:58.277Z,10.20
2023-01-23T07:36:26.126Z,9.37
2023-01-23T07:38:56.617Z,9.40
2023-01-23T07:41:24.407Z,10.97
2023-01-23T07:43:52.170Z,9.03
2023-01-23T07:46:20.493Z,10.60
2023-01-23T07:48:48.908Z,10.40
2023-01-23T07:51:16.563Z,10.20
2023-01-23T07:53:44.402Z,9.97
2023-01-23T07:56:13.811Z,11.43
2023-01-23T07:58:41.931Z,10.23
2023-01-23T08:01:10.803Z,10.63
2023-01-23T08:03:38.544Z,10.83
2023-01-23T08:06:07.846Z,10.50
2023-01-23T08:08:35.827Z,8.73
2023-01-23T08:11:05.380Z,10.20
2023-01-23T08:13:34.530Z,9.90
2023-01-23T08:16:02.460Z,9.00
2023-01-23T08:18:31.281Z,8.70
2023-01-23T08:21:02.023Z,13.40
2023-01-23T08:23:32.076Z,10.10
2023-01-23T08:26:01.718Z,9.10
2023-01-23T08:28:29.646Z,10.30
2023-01-23T08:31:01.799Z,9.50
2023-01-23T08:33:30.241Z,9.73
2023-01-23T08:35:59.189Z,10.27
2023-01-23T08:38:27.515Z,9.60
2023-01-23T08:40:59.211Z,11.03
2023-01-23T08:43:27.341Z,9.57
2023-01-23T08:45:57.186Z,11.93
2023-01-23T08:48:28.218Z,11.17
2023-01-23T08:51:01.790Z,12.00
2023-01-23T08:53:30.173Z,11.60
2023-01-23T08:56:01.029Z,10.60
2023-01-23T08:58:29.321Z,9.30
2023-01-23T09:00:57.378Z,9.77
2023-01-23T09:03:27.384Z,9.10
2023-01-23T09:05:55.813Z,9.23
2023-01-23T09:08:23.514Z,9.33
2023-01-23T09:10:51.392Z,9.20
2023-01-23T09:13:19.824Z,8.90
2023-01-23T09:15:47.979Z,11.37
2023-01-23T09:18:15.855Z,9.97
2023-01-23T09:20:45.468Z,8.97
2023-01-23T09:23:13.185Z,8.20
2023-01-23T09:25:41.178Z,9.00
2023-01-23T09:28:08.799Z,7.73
2023-01-23T09:30:37.189Z,7.80
2023-01-23T09:33:05.307Z,8.27
2023-01-23T09:35:33.404Z,7.90
2023-01-23T09:38:07.814Z,8.60
2023-01-23T09:40:38.286Z,8.17
2023-01-23T09:43:17.126Z,7.17
2023-01-23T09:45:54.281Z,6.47
2023-01-23T09:48:26.601Z,6.37
2023-01-23T09:50:57.925Z,7.27
2023-01-23T09:53:34.823Z,7.47
2023-01-23T09:56:08.138Z,6.80
2023-01-23T09:58:42.285Z,7.10
2023-01-23T10:01:13.777Z,7.80
2023-01-23T10:03:42.151Z,6.57
2023-01-23T10:06:22.205Z,7.50
2023-01-23T10:09:08.098Z,7.43
2023-01-23T10:11:46.916Z,6.80
2023-01-23T10:14:41.644Z,7.83
2023-01-23T10:17:20.498Z,7.80
2023-01-23T10:20:03.970Z,8.00
2023-01-23T10:22:38.655Z,7.30
2023-01-23T10:25:18.317Z,6.90
2023-01-23T10:27:48.422Z,8.17
2023-01-23T10:30:27.934Z,8.00
2023-01-23T10:33:00.665Z,7.40
2023-01-23T10:35:37.317Z,7.67
2023-01-23T10:38:14.259Z,7.43
2023-01-23T10:41:01.290Z,6.97
2023-01-23T10:43:29.031Z,9.13
2023-01-23T10:45:59.561Z,7.30
2023-01-23T10:48:40.832Z,7.90
2023-01-23T10:51:33.828Z,7.03
2023-01-23T10:54:26.004Z,8.10
2023-01-23T10:57:02.165Z,7.77
2023-01-23T10:59:34.431Z,10.27
2023-01-23T11:02:21.381Z,7.43
2023-01-23T11:04:52.454Z,8.40
2023-01-23T11:07:24.918Z,9.30
2023-01-23T11:09:56.414Z,7.70
2023-01-23T11:12:27.971Z,9.70
2023-01-23T11:15:21.214Z,9.20
2023-01-23T11:17:50.616Z,10.00
2023-01-23T11:20:27.688Z,8.90
2023-01-23T11:23:05.472Z,9.93
2023-01-23T11:25:35.086Z,8.83
2023-01-23T11:28:19.765Z,9.20
2023-01-23T11:30:54.201Z,7.73
2023-01-23T11:33:40.346Z,8.00
2023-01-23T11:36:23.744Z,9.73
2023-01-23T11:38:57.124Z,9.50
2023-01-23T11:41:30.750Z,8.67
2023-01-23T11:44:00.294Z,8.20
2023-01-23T11:46:48.798Z,8.87
2023-01-23T11:49:32.962Z,9.30
2023-01-23T11:52:19.396Z,8.30
2023-01-23T11:55:04.776Z,9.43
2023-01-23T11:57:42.539Z,8.60
2023-01-23T12:00:31.108Z,8.53
2023-01-23T12:03:37.838Z,8.50
2023-01-23T12:06:34.865Z,8.70
2023-01-23T12:09:11.080Z,8.67
2023-01-23T12:11:51.218Z,8.17
2023-01-23T12:14:25.245Z,8.80
2023-01-23T12:17:12.130Z,9.50
2023-01-23T12:20:08.035Z,8.03
2023-01-23T12:22:46.983Z,9.70
2023-01-23T12:25:24.037Z,8.53
2023-01-23T12:28:02.793Z,8.60
2023-01-23T12:30:48.348Z,7.47
2023-01-23T12:33:37.216Z,8.53
2023-01-23T12:36:19.988Z,8.80
2023-01-23T12:38:58.484Z,7.53
2023-01-23T12:41:37.867Z,7.83
2023-01-23T12:44:13.457Z,9.27
2023-01-23T12:46:47.202Z,8.80
2023-01-23T12:49:23.963Z,8.27
2023-01-23T12:51:56.324Z,9.07
2023-01-23T12:54:34.526Z,7.87
2023-01-23T12:57:04.655Z,7.83
2023-01-23T12:59:43.308Z,8.73
2023-01-23T13:02:18.645Z,7.90
2023-01-23T13:05:08.306Z,8.50
2023-01-23T13:07:47.976Z,8.10
2023-01-23T13:11:02.087Z,8.30
2023-01-23T13:13:30.729Z,8.73
2023-01-23T13:16:12.121Z,9.73
2023-01-23T13:18:58.494Z,7.93
2023-01-23T13:21:45.718Z,8.93
2023-01-23T13:25:02.743Z,7.70
2023-01-23T13:27:47.692Z,7.60
2023-01-23T13:30:44.217Z,7.33
2023-01-23T13:33:55.285Z,8.73
2023-01-23T13:36:34.189Z,7.27
2023-01-23T13:39:24.316Z,8.40
2023-01-23T13:42:14.621Z,8.70
2023-01-23T13:45:15.739Z,7.37
2023-01-23T14:20:19.422Z,7.20
2023-01-23T14:22:47.569Z,6.93
2023-01-23T14:25:17.930Z,6.67
2023-01-23T14:27:54.566Z,6.87
2023-01-23T14:30:27.246Z,7.17
2023-01-23T14:32:55.437Z,7.90
2023-01-23T14:35:26.251Z,7.00
2023-01-23T14:37:56.929Z,7.87
2023-01-23T14:40:28.177Z,7.87
2023-01-23T14:43:01.166Z,6.70
2023-01-23T14:45:33.762Z,8.20
2023-01-23T14:48:06.959Z,7.13
2023-01-23T14:50:36.300Z,7.17
2023-01-23T14:53:05.993Z,5.97
2023-01-23T14:55:38.790Z,7.10
2023-01-23T14:58:08.373Z,8.63
2023-01-23T15:00:38.210Z,7.43
2023-01-23T15:03:08.523Z,7.70
2023-01-23T15:05:39.411Z,7.50
2023-01-23T15:08:20.750Z,6.93
2023-01-23T15:10:51.078Z,7.33
2023-01-23T15:13:25.409Z,7.37
2023-01-23T15:15:57.909Z,8.43
2023-01-23T15:18:27.729Z,8.23
2023-01-23T15:20:56.704Z,7.90
2023-01-23T15:23:31.757Z,7.73
2023-01-23T15:26:26.469Z,7.87
2023-01-23T15:28:57.831Z,8.40
2023-01-23T15:31:30.625Z,8.60
2023-01-23T15:34:18.575Z,7.23
2023-01-23T15:36:51.304Z,9.20
2023-01-23T15:39:22.780Z,9.00
2023-01-23T15:41:52.695Z,8.40
2023-01-23T15:44:23.172Z,7.37
2023-01-23T15:46:52.254Z,9.23
2023-01-23T15:49:25.830Z,7.80
2023-01-23T15:51:56.515Z,9.03
2023-01-23T15:54:29.711Z,9.03
2023-01-23T15:57:07.048Z,9.03
2023-01-23T15:59:37.014Z,9.87
2023-01-23T16:02:08.230Z,8.67
2023-01-23T16:04:38.747Z,8.30
2023-01-23T16:07:08.522Z,8.93
2023-01-23T16:09:38.956Z,7.93
2023-01-23T16:12:08.567Z,8.87
2023-01-23T16:14:37.257Z,9.30
2023-01-23T16:17:16.307Z,8.33
2023-01-23T16:19:44.713Z,8.63
2023-01-23T16:22:23.361Z,6.87
2023-01-23T16:24:51.263Z,8.53
2023-01-23T16:27:23.105Z,7.60
2023-01-23T16:29:51.162Z,8.10
2023-01-23T16:32:20.542Z,8.43
2023-01-23T16:34:51.469Z,9.70
2023-01-23T16:37:20.736Z,9.53
2023-01-23T16:39:49.176Z,9.87
2023-01-23T16:42:23.201Z,8.30
2023-01-23T16:44:51.575Z,7.90
2023-01-23T16:47:22.028Z,9.30
2023-01-23T16:49:53.066Z,9.63
2023-01-23T16:52:26.746Z,9.50
2023-01-23T16:54:55.939Z,8.60
2023-01-23T16:57:24.951Z,9.23
2023-01-23T16:59:56.669Z,8.10
2023-01-23T17:02:30.255Z,10.00
2023-01-23T17:04:58.433Z,9.70
2023-01-23T17:07:26.303Z,10.03
2023-01-23T17:09:54.722Z,8.50
2023-01-23T17:12:28.781Z,8.13
2023-01-23T17:14:57.615Z,8.40
2023-01-23T17:17:33.333Z,9.43
2023-01-23T17:20:02.524Z,7.87
2023-01-23T17:22:35.111Z,8.97
2023-01-23T17:25:02.896Z,11.07
2023-01-23T17:27:34.357Z,8.37
2023-01-23T17:30:11.486Z,10.20
2023-01-23T17:32:40.859Z,8.80
2023-01-23T17:35:17.898Z,9.00
2023-01-23T17:37:45.939Z,8.37
2023-01-23T17:40:15.599Z,9.07
2023-01-23T17:42:44.144Z,8.53
2023-01-23T17:45:15.660Z,9.30
2023-01-23T17:47:48.432Z,8.73
2023-01-23T17:50:19.822Z,9.20
2023-01-23T17:52:48.638Z,9.50
2023-01-23T17:55:16.775Z,8.73
2023-01-23T17:57:44.545Z,8.50
2023-01-23T18:00:15.797Z,9.07
2023-01-23T18:02:45.584Z,9.57
2023-01-23T18:05:14.757Z,9.80
2023-01-23T18:07:53.379Z,9.67
2023-01-23T18:10:25.041Z,9.17
2023-01-23T18:13:07.788Z,11.77
2023-01-23T18:15:41.252Z,9.10
2023-01-23T18:18:30.960Z,8.50
2023-01-23T18:21:00.052Z,8.30
2023-01-23T18:23:29.477Z,9.00
2023-01-23T18:26:05.837Z,10.73
2023-01-23T18:28:45.177Z,9.60
2023-01-23T18:31:21.777Z,8.80
2023-01-23T18:34:05.890Z,10.30
2023-01-23T18:36:49.147Z,9.70
2023-01-23T18:39:34.626Z,8.97
2023-01-23T18:42:14.959Z,10.00
2023-01-23T18:44:49.661Z,9.63
2023-01-23T18:47:18.233Z,10.50
2023-01-23T18:49:50.584Z,9.43
2023-01-23T18:52:23.302Z,9.10
2023-01-23T18:55:00.346Z,9.33
2023-01-23T18:57:38.129Z,9.17
2023-01-23T19:00:16.717Z,9.83
2023-01-23T19:02:50.216Z,9.00
2023-01-23T19:05:30.740Z,9.23
2023-01-23T19:08:00.222Z,10.00
2023-01-23T19:10:40.089Z,8.90
2023-01-23T19:13:21.386Z,9.10
2023-01-23T19:16:00.476Z,10.03
2023-01-23T19:18:44.093Z,11.03
2023-01-23T19:21:18.020Z,10.20
2023-01-23T19:23:53.239Z,10.80
2023-01-23T19:26:22.223Z,10.73
2023-01-23T19:28:51.032Z,9.10
2023-01-23T19:31:23.497Z,10.67
2023-01-23T19:33:51.757Z,9.03
2023-01-23T19:36:23.452Z,9.60
2023-01-23T19:38:52.503Z,10.20
2023-01-23T19:41:23.905Z,9.53
2023-01-23T19:43:54.738Z,8.93
2023-01-23T19:46:32.768Z,9.70
2023-01-23T19:49:02.842Z,9.10
2023-01-23T19:51:33.653Z,8.87
2023-01-23T19:54:01.966Z,10.17
2023-01-23T19:56:33.235Z,9.53
2023-01-23T19:59:01.216Z,9.13
2023-01-23T20:01:37.003Z,11.00
2023-01-23T20:04:06.788Z,11.83
2023-01-23T20:06:39.146Z,10.00
2023-01-23T20:09:07.048Z,9.70
2023-01-23T20:11:34.956Z,8.93
2023-01-23T20:14:02.722Z,9.30
2023-01-23T20:16:30.403Z,10.67
2023-01-23T20:18:58.596Z,11.03
2023-01-23T20:21:27.321Z,11.00
2023-01-23T20:23:56.327Z,9.50
2023-01-23T20:26:24.547Z,10.17
2023-01-23T20:28:54.013Z,10.50
2023-01-23T20:31:23.504Z,9.93
2023-01-23T20:33:51.643Z,10.60
2023-01-23T20:36:19.296Z,9.47
2023-01-23T20:38:47.337Z,10.60
2023-01-23T20:41:18.786Z,10.43
2023-01-23T20:43:47.170Z,9.90
2023-01-23T20:46:16.810Z,9.40
2023-01-23T20:48:46.218Z,9.37
2023-01-23T20:51:15.571Z,10.07
2023-01-23T20:53:44.209Z,9.50
2023-01-23T20:56:14.500Z,10.70
2023-01-23T20:59:03.574Z,9.37
2023-01-23T21:01:56.231Z,10.50
2023-01-23T21:04:26.057Z,10.97
2023-01-23T21:06:54.186Z,10.10
2023-01-23T21:09:23.138Z,9.43
2023-01-23T21:11:51.990Z,10.37
2023-01-23T21:14:25.546Z,9.80
2023-01-23T21:16:53.121Z,10.13
2023-01-23T21:19:21.461Z,11.20
2023-01-23T21:21:49.221Z,10.40
2023-01-23T21:24:16.856Z,10.30
2023-01-23T21:26:44.690Z,9.57
2023-01-23T21:29:12.429Z,9.80
2023-01-23T21:31:43.005Z,9.20
2023-01-23T21:34:13.453Z,10.33
2023-01-23T21:36:43.763Z,10.83
2023-01-23T21:39:13.904Z,10.37
2023-01-23T21:41:41.732Z,10.93
2023-01-23T21:44:10.540Z,11.50
2023-01-23T21:46:38.747Z,11.00
2023-01-23T21:49:07.721Z,10.43
2023-01-23T21:51:35.348Z,10.17
2023-01-23T21:54:03.099Z,10.20
2023-01-23T21:56:31.720Z,10.80
2023-01-23T21:58:59.833Z,10.60
2023-01-23T22:01:35.299Z,9.70
2023-01-23T22:04:05.675Z,11.60
2023-01-23T22:06:36.292Z,10.57
2023-01-23T22:09:05.548Z,10.90
2023-01-23T22:11:33.515Z,10.23
2023-01-23T22:14:01.394Z,9.80
2023-01-23T22:16:47.094Z,10.20
2023-01-23T22:19:16.738Z,10.87
2023-01-23T22:21:47.022Z,10.10
2023-01-23T22:24:15.362Z,9.87
2023-01-23T22:26:43.529Z,9.90
2023-01-23T22:29:12.379Z,10.60
2023-01-23T22:31:40.900Z,9.83
2023-01-23T22:34:08.626Z,11.90
2023-01-23T22:36:36.606Z,10.73
2023-01-23T22:39:06.103Z,9.00
2023-01-23T22:41:33.845Z,10.07
2023-01-23T22:44:01.480Z,10.33
2023-01-23T22:46:32.031Z,10.20
2023-01-23T22:48:59.696Z,10.23
2023-01-23T22:51:29.837Z,11.80
2023-01-23T22:53:59.031Z,10.53
2023-01-23T22:56:29.503Z,10.27
2023-01-23T22:58:58.526Z,10.30
2023-01-23T23:01:27.568Z,9.83
2023-01-23T23:03:56.858Z,9.97
2023-01-23T23:06:25.133Z,9.97
2023-01-23T23:08:53.927Z,10.77
2023-01-23T23:11:23.213Z,9.60
2023-01-23T23:13:55.703Z,10.40
2023-01-23T23:16:26.210Z,10.00
2023-01-23T23:18:56.757Z,10.40
2023-01-23T23:21:28.068Z,10.80
2023-01-23T23:23:58.147Z,8.77
2023-01-23T23:26:26.511Z,9.30
2023-01-23T23:28:56.724Z,10.17
2023-01-23T23:31:24.426Z,8.57
2023-01-23T23:33:53.062Z,9.17
2023-01-23T23:36:20.806Z,9.77
2023-01-23T23:38:48.436Z,10.67
2023-01-23T23:41:18.531Z,10.80
2023-01-23T23:43:46.602Z,10.30
2023-01-23T23:46:17.033Z,9.73
2023-01-23T23:48:46.089Z,10.43
2023-01-23T23:51:16.064Z,10.20
2023-01-23T23:53:44.086Z,9.03
2023-01-23T23:56:18.794Z,9.53
2023-01-23T23:58:46.791Z,10.03
